.
WxDataArchive / Data Records for 2010-01-21
2010-01-20 January 2010 2010-01-22

Data Records for Thursday, 21 January 2010

Time	Temp	Chill	HIndex	Humid	Dewpt	 Wind 	HiWind	WindDir	Rain 	Barom 
-----	----	-----	------	-----	-----	------	------	-------	-----	----- 
00:00	25.8	18.0	25.8	79	20.2	7	15	112	0.00	30.073 
00:05	25.8	19.8	25.8	80	20.5	5	11	90	0.00	30.073 
00:10	25.8	18.0	25.8	79	20.2	7	14	90	0.00	30.073 
00:15	25.8	18.8	25.8	79	20.2	6	14	112	0.00	30.064 
00:20	25.8	18.8	25.8	79	20.2	6	15	112	0.00	30.064 
00:25	25.7	18.7	25.7	79	20.1	6	16	112	0.00	30.064 
00:30	25.7	17.2	25.7	79	20.1	8	16	90	0.00	30.062 
00:35	25.7	18.7	25.7	79	20.1	6	13	112	0.00	30.062 
00:40	25.7	17.2	25.7	79	20.1	8	15	112	0.00	30.062 
00:45	25.7	17.9	25.7	79	20.1	7	14	112	0.00	30.055 
00:50	25.6	17.8	25.6	79	20.0	7	15	112	0.00	30.055 
00:55	25.6	17.1	25.6	79	20.0	8	16	112	0.00	30.055 
01:00	25.6	17.8	25.6	79	20.0	7	16	90	0.00	30.045 
01:05	25.6	19.6	25.6	80	20.3	5	13	112	0.00	30.045 
01:10	25.6	18.6	25.6	80	20.3	6	15	112	0.00	30.045 
01:15	25.6	18.6	25.6	80	20.3	6	11	112	0.00	30.039 
01:20	25.6	19.6	25.6	80	20.3	5	13	112	0.00	30.039 
01:25	25.6	18.6	25.6	80	20.3	6	13	112	0.00	30.039 
01:30	25.6	19.6	25.6	80	20.3	5	15	90	0.00	30.039 
01:35	25.6	17.1	25.6	80	20.3	8	16	112	0.00	30.039 
01:40	25.6	17.1	25.6	80	20.3	8	15	90	0.00	30.039 
01:45	25.4	17.5	25.4	80	20.1	7	14	112	0.00	30.030 
01:50	25.4	17.5	25.4	80	20.1	7	14	90	0.00	30.030 
01:55	25.4	16.8	25.4	80	20.1	8	16	112	0.00	30.030 
02:00	25.4	17.5	25.4	80	20.1	7	17	90	0.00	30.022 
02:05	25.4	17.5	25.4	80	20.1	7	16	112	0.00	30.022 
02:10	25.4	16.8	25.4	81	20.4	8	18	112	0.00	30.022 
02:15	25.4	16.8	25.4	81	20.4	8	20	90	0.00	30.015 
02:20	25.4	16.8	25.4	81	20.4	8	20	112	0.00	30.015 
02:25	25.4	16.1	25.4	81	20.4	9	20	112	0.00	30.015 
02:30	25.4	17.5	25.4	81	20.4	7	15	112	0.00	30.009 
02:35	25.4	17.5	25.4	81	20.4	7	17	112	0.00	30.009 
02:40	25.4	18.4	25.4	80	20.1	6	15	112	0.00	30.009 
02:45	25.4	17.5	25.4	80	20.1	7	15	112	0.00	29.988 
02:50	25.4	17.5	25.4	80	20.1	7	16	112	0.00	29.988 
02:55	25.6	17.1	25.6	80	20.3	8	12	90	0.00	29.988 
03:00	25.6	16.4	25.6	79	20.0	9	16	112	0.00	30.010 
03:05	25.6	18.6	25.6	80	20.3	6	14	112	0.00	30.010 
03:10	25.6	17.8	25.6	80	20.3	7	12	112	0.00	30.010 
03:15	25.6	17.1	25.6	79	20.0	8	16	112	0.00	30.025 
03:20	25.6	18.6	25.6	80	20.3	6	11	112	0.00	30.025 
03:25	25.6	18.6	25.6	80	20.3	6	12	90	0.00	30.025 
03:30	25.6	17.8	25.6	80	20.3	7	14	112	0.00	30.030 
03:35	25.6	17.8	25.6	80	20.3	7	14	90	0.00	30.030 
03:40	25.6	19.6	25.6	80	20.3	5	11	112	0.00	30.030 
03:45	25.7	18.7	25.7	80	20.4	6	11	112	0.00	30.035 
03:50	25.7	19.7	25.7	80	20.4	5	12	112	0.00	30.035 
03:55	25.7	17.9	25.7	79	20.1	7	15	112	0.00	30.035 
04:00	25.7	18.7	25.7	79	20.1	6	15	90	0.00	30.029 
04:05	25.7	18.7	25.7	79	20.1	6	14	112	0.00	30.029 
04:10	25.7	19.7	25.7	79	20.1	5	10	90	0.00	30.029 
04:15	25.7	19.7	25.7	79	20.1	5	13	90	0.00	30.023 
04:20	25.7	17.9	25.7	79	20.1	7	14	112	0.00	30.023 
04:25	25.7	17.9	25.7	79	20.1	7	13	112	0.00	30.023 
04:30	25.7	18.7	25.7	79	20.1	6	15	112	0.00	30.019 
04:35	25.7	19.7	25.7	80	20.4	5	12	112	0.00	30.019 
04:40	25.8	19.8	25.8	79	20.2	5	12	112	0.00	30.019 
04:45	25.8	19.8	25.8	79	20.2	5	10	112	0.00	30.016 
04:50	26.0	20.0	26.0	79	20.4	5	14	112	0.00	30.016 
04:55	26.0	19.1	26.0	79	20.4	6	13	112	0.00	30.016 
05:00	26.1	21.3	26.1	79	20.5	4	10	112	0.00	30.014 
05:05	26.1	19.2	26.1	79	20.5	6	13	112	0.00	30.014 
05:10	26.3	21.5	26.3	79	20.7	4	13	90	0.00	30.014 
05:15	26.3	21.5	26.3	79	20.7	4	9	90	0.00	30.031 
05:20	26.3	21.5	26.3	78	20.4	4	9	112	0.00	30.031 
05:25	26.4	26.4	26.4	78	20.5	3	7	112	0.00	30.031 
05:30	26.4	21.6	26.4	79	20.8	4	9	112	0.00	30.033 
05:35	26.6	19.8	26.6	77	20.4	6	13	112	0.00	30.033 
05:40	26.6	19.0	26.6	77	20.4	7	15	112	0.00	30.033 
05:45	26.6	20.7	26.6	77	20.4	5	13	112	0.00	30.019 
05:50	26.6	20.7	26.6	77	20.4	5	12	90	0.00	30.019 
05:55	26.6	19.8	26.6	77	20.4	6	14	112	0.00	30.019 
06:00	26.6	19.8	26.6	77	20.4	6	15	90	0.00	30.030 
06:05	26.6	21.8	26.6	77	20.4	4	11	112	0.00	30.030 
06:10	26.6	19.8	26.6	77	20.4	6	13	112	0.00	30.030 
06:15	26.4	21.6	26.4	78	20.5	4	11	112	0.00	30.023 
06:20	26.4	21.6	26.4	78	20.5	4	12	90	0.00	30.023 
06:25	26.4	21.6	26.4	78	20.5	4	12	112	0.00	30.023 
06:30	26.4	20.5	26.4	78	20.5	5	10	90	0.00	30.018 
06:35	26.4	21.6	26.4	78	20.5	4	14	112	0.00	30.018 
06:40	26.4	18.7	26.4	78	20.5	7	15	112	0.00	30.018 
06:45	26.4	19.6	26.4	78	20.5	6	16	112	0.00	30.011 
06:50	26.4	21.6	26.4	78	20.5	4	13	112	0.00	30.011 
06:55	26.3	19.4	26.3	78	20.4	6	14	112	0.00	30.011 
07:00	26.3	20.4	26.3	79	20.7	5	11	112	0.00	30.003 
07:05	26.3	18.6	26.3	78	20.4	7	16	112	0.00	30.003 
07:10	26.3	19.4	26.3	78	20.4	6	14	112	0.00	30.003 
07:15	26.3	19.4	26.3	78	20.4	6	12	112	0.00	30.000 
07:20	26.3	18.6	26.3	77	20.1	7	17	112	0.00	30.000 
07:25	26.3	20.4	26.3	77	20.1	5	13	112	0.00	30.000 
07:30	26.1	20.1	26.1	78	20.2	5	12	90	0.00	29.987 
07:35	26.1	19.2	26.1	77	19.9	6	16	112	0.00	29.987 
07:40	26.3	19.4	26.3	77	20.1	6	14	112	0.00	29.987 
07:45	26.3	20.4	26.3	77	20.1	5	13	112	0.00	29.985 
07:50	26.4	19.6	26.4	77	20.2	6	13	112	0.00	29.985 
07:55	26.4	20.5	26.4	77	20.2	5	13	112	0.00	29.985 
08:00	26.4	19.6	26.4	76	19.9	6	13	112	0.00	29.985 
08:05	26.6	21.8	26.6	76	20.1	4	12	112	0.00	29.985 
08:10	26.6	20.7	26.6	76	20.1	5	13	90	0.00	29.985 
08:15	26.6	21.8	26.6	76	20.1	4	11	112	0.00	29.996 
08:20	26.6	21.8	26.6	76	20.1	4	11	90	0.00	29.996 
08:25	26.6	20.7	26.6	76	20.1	5	11	90	0.00	29.996 
08:30	26.6	19.8	26.6	75	19.8	6	14	112	0.00	29.993 
08:35	26.7	19.9	26.7	74	19.5	6	11	112	0.00	29.993 
08:40	26.9	20.2	26.9	74	19.7	6	17	112	0.00	29.993 
08:45	26.9	19.4	26.9	73	19.4	7	15	90	0.00	29.975 
08:50	27.0	19.5	27.0	73	19.5	7	13	90	0.00	29.975 
08:55	27.2	20.5	27.2	73	19.7	6	15	112	0.00	29.975 
09:00	27.2	20.5	27.2	73	19.7	6	12	112	0.00	29.983 
09:05	27.2	20.5	27.2	74	20.0	6	14	112	0.00	29.983 
09:10	27.2	21.4	27.2	73	19.7	5	10	90	0.00	29.983 
09:15	27.3	20.6	27.3	73	19.8	6	14	90	0.00	29.982 
09:20	27.3	20.6	27.3	73	19.8	6	13	112	0.00	29.982 
09:25	27.5	20.1	27.5	73	20.0	7	16	112	0.00	29.982 
09:30	27.5	19.4	27.5	72	19.7	8	17	112	0.00	29.975 
09:35	27.5	21.8	27.5	73	20.0	5	12	112	0.00	29.975 
09:40	27.6	21.0	27.6	73	20.1	6	12	112	0.00	29.975 
09:45	27.6	21.0	27.6	73	20.1	6	13	112	0.00	29.969 
09:50	27.8	20.4	27.8	73	20.3	7	14	112	0.00	29.969 
09:55	27.9	22.3	27.9	73	20.4	5	11	112	0.00	29.969 
10:00	27.9	21.3	27.9	73	20.4	6	14	112	0.00	29.962 
10:05	28.2	23.7	28.2	73	20.7	4	11	112	0.00	29.962 
10:10	28.4	23.9	28.4	73	20.9	4	11	112	0.00	29.962 
10:15	28.4	22.8	28.4	73	20.9	5	12	90	0.00	29.955 
10:20	28.5	23.0	28.5	72	20.6	5	13	90	0.00	29.955 
10:25	28.5	21.3	28.5	73	21.0	7	15	112	0.00	29.955 
10:30	28.8	28.8	28.8	73	21.3	3	11	112	0.00	29.953 
10:35	29.0	23.6	29.0	72	21.1	5	12	90	0.00	29.953 
10:40	29.1	23.7	29.1	72	21.2	5	9	112	0.00	29.953 
10:45	29.3	25.0	29.3	72	21.4	4	8	90	0.00	29.947 
10:50	29.4	24.0	29.4	71	21.2	5	13	112	0.00	29.947 
10:55	29.4	23.1	29.4	71	21.2	6	11	112	0.00	29.947 
11:00	29.7	25.4	29.7	71	21.5	4	10	112	0.00	29.941 
11:05	29.8	25.5	29.8	72	21.9	4	13	112	0.00	29.941 
11:10	29.8	22.8	29.8	70	21.2	7	13	90	0.00	29.941 
11:15	29.8	24.5	29.8	71	21.6	5	12	112	0.00	29.937 
11:20	30.0	23.8	30.0	71	21.8	6	11	90	0.00	29.937 
11:25	30.1	24.0	30.1	71	21.9	6	12	90	0.00	29.937 
11:30	30.3	24.2	30.3	70	21.7	6	13	112	0.00	29.936 
11:35	30.3	25.1	30.3	71	22.0	5	11	90	0.00	29.936 
11:40	30.4	26.2	30.4	71	22.1	4	12	112	0.00	29.936 
11:45	30.4	23.6	30.4	70	21.8	7	17	90	0.00	29.932 
11:50	30.4	23.6	30.4	70	21.8	7	14	112	0.00	29.932 
11:55	30.4	23.6	30.4	72	22.5	7	12	112	0.00	29.932 
12:00	30.4	23.6	30.4	73	22.8	7	15	90	0.00	29.931 
12:05	30.4	24.3	30.4	73	22.8	6	12	90	0.00	29.931 
12:10	30.6	25.4	30.6	73	23.0	5	12	90	0.00	29.931 
12:15	30.6	23.8	30.6	73	23.0	7	14	112	0.00	29.922 
12:20	30.6	25.4	30.6	72	22.7	5	13	90	0.00	29.922 
12:25	30.6	25.4	30.6	72	22.7	5	12	112	0.00	29.922 
12:30	30.6	24.6	30.6	72	22.7	6	13	112	0.00	29.919 
12:35	30.7	24.7	30.7	72	22.8	6	12	112	0.00	29.919 
12:40	30.9	25.8	30.9	72	23.0	5	10	112	0.00	29.919 
12:45	31.2	26.1	31.2	71	22.9	5	9	90	0.00	29.908 
12:50	31.6	27.6	31.6	71	23.3	4	11	90	0.00	29.908 
12:55	31.9	26.1	31.9	70	23.2	6	14	112	0.00	29.908 
13:00	32.1	26.3	32.1	69	23.1	6	13	112	0.00	29.892 
13:05	32.2	28.3	32.2	70	23.5	4	11	112	0.00	29.892 
13:10	32.4	27.5	32.4	70	23.7	5	11	112	0.00	29.892 
13:15	32.7	27.9	32.7	70	24.0	5	12	90	0.00	29.878 
13:20	32.9	25.9	32.9	69	23.9	8	17	112	0.00	29.878 
13:25	33.1	27.5	33.1	69	24.1	6	13	112	0.00	29.878 
13:30	33.2	27.7	33.2	68	23.8	6	13	112	0.00	29.870 
13:35	33.2	27.7	33.2	69	24.2	6	15	112	0.00	29.870 
13:40	33.1	27.5	33.1	69	24.1	6	18	112	0.00	29.870 
13:45	33.2	27.7	33.2	69	24.2	6	13	90	0.00	29.863 
13:50	33.4	29.7	33.4	70	24.7	4	11	112	0.00	29.863 
13:55	33.2	28.5	33.2	70	24.5	5	11	112	0.00	29.863 
14:00	33.1	28.4	33.1	70	24.4	5	17	90	0.00	29.855 
14:05	32.9	26.6	32.9	70	24.2	7	16	112	0.00	29.855 
14:10	32.9	27.3	32.9	70	24.2	6	13	112	0.00	29.855 
14:15	33.1	28.4	33.1	70	24.4	5	12	112	0.00	29.842 
14:20	33.2	28.5	33.2	71	24.8	5	14	112	0.00	29.842 
14:25	33.2	29.5	33.2	71	24.8	4	12	112	0.00	29.842 
14:30	33.4	28.7	33.4	71	25.0	5	14	112	0.00	29.844 
14:35	33.5	29.8	33.5	71	25.1	4	9	112	0.00	29.844 
14:40	33.5	28.0	33.5	71	25.1	6	14	112	0.00	29.844 
14:45	33.5	29.8	33.5	71	25.1	4	11	90	0.00	29.837 
14:50	33.5	27.3	33.5	70	24.8	7	15	112	0.00	29.837 
14:55	33.5	28.0	33.5	71	25.1	6	13	112	0.00	29.837 
15:00	33.5	28.8	33.5	71	25.1	5	10	112	0.00	29.827 
15:05	33.7	29.1	33.7	72	25.7	5	12	112	0.00	29.827 
15:10	33.5	28.8	33.5	72	25.5	5	11	112	0.00	29.827 
15:15	33.5	29.8	33.5	72	25.5	4	11	112	0.00	29.831 
15:20	33.7	33.7	33.7	73	26.0	3	10	90	0.00	29.831 
15:25	33.7	30.0	33.7	73	26.0	4	10	90	0.00	29.831 
15:30	33.5	29.8	33.5	73	25.8	4	13	112	0.00	29.827 
15:35	33.5	29.8	33.5	74	26.1	4	15	112	0.00	29.827 
15:40	33.4	28.7	33.4	74	26.0	5	13	112	0.00	29.827 
15:45	33.4	29.7	33.4	75	26.3	4	12	112	0.00	29.832 
15:50	33.4	33.4	33.4	75	26.3	3	12	112	0.00	29.832 
15:55	33.4	28.7	33.4	74	26.0	5	12	112	0.00	29.832 
16:00	33.2	28.5	33.2	75	26.2	5	11	112	0.00	29.830 
16:05	33.2	28.5	33.2	75	26.2	5	12	112	0.00	29.830 
16:10	33.2	27.7	33.2	75	26.2	6	16	112	0.00	29.830 
16:15	33.2	33.2	33.2	76	26.5	3	7	112	0.00	29.826 
16:20	33.1	27.5	33.1	76	26.4	6	14	112	0.00	29.826 
16:25	33.1	29.3	33.1	77	26.7	4	12	112	0.00	29.826 
16:30	32.9	29.1	32.9	77	26.5	4	12	90	0.00	29.827 
16:35	32.9	28.1	32.9	77	26.5	5	15	112	0.00	29.827 
16:40	32.9	32.9	32.9	77	26.5	2	8	90	0.00	29.827 
16:45	32.8	29.0	32.8	77	26.4	4	12	90	0.00	29.827 
16:50	32.8	32.8	32.8	77	26.4	3	8	112	0.00	29.827 
16:55	32.7	28.9	32.7	77	26.3	4	12	112	0.00	29.827 
17:00	32.5	28.7	32.5	78	26.4	4	11	112	0.00	29.827 
17:05	32.5	28.7	32.5	78	26.4	4	16	112	0.00	29.827 
17:10	32.4	27.5	32.4	78	26.3	5	14	112	0.00	29.827 
17:15	32.2	28.3	32.2	78	26.1	4	11	112	0.00	29.829 
17:20	32.2	32.2	32.2	79	26.4	3	8	112	0.00	29.829 
17:25	32.2	27.3	32.2	78	26.1	5	14	90	0.00	29.829 
17:30	32.2	27.3	32.2	78	26.1	5	15	112	0.00	29.829 
17:35	32.2	32.2	32.2	79	26.4	3	9	90	0.00	29.829 
17:40	32.2	27.3	32.2	79	26.4	5	13	90	0.00	29.829 
17:45	32.1	27.2	32.1	79	26.3	5	12	112	0.00	29.838 
17:50	32.1	28.2	32.1	78	26.0	4	11	90	0.00	29.838 
17:55	32.1	28.2	32.1	78	26.0	4	10	90	0.00	29.838 
18:00	32.1	28.2	32.1	78	26.0	4	12	90	0.00	29.843 
18:05	31.9	27.0	31.9	77	25.5	5	15	112	0.00	29.843 
18:10	31.9	27.0	31.9	77	25.5	5	13	112	0.00	29.843 
18:15	31.9	26.1	31.9	77	25.5	6	13	112	0.00	29.847 
18:20	31.8	26.0	31.8	77	25.4	6	17	112	0.00	29.847 
18:25	31.8	26.8	31.8	77	25.4	5	15	112	0.00	29.847 
18:30	31.8	31.8	31.8	78	25.7	3	13	112	0.00	29.851 
18:35	31.8	26.8	31.8	78	25.7	5	17	112	0.00	29.851 
18:40	31.6	27.6	31.6	78	25.5	4	14	112	0.00	29.851 
18:45	31.6	31.6	31.6	78	25.5	3	9	112	0.00	29.852 
18:50	31.6	27.6	31.6	78	25.5	4	11	112	0.00	29.852 
18:55	31.6	27.6	31.6	78	25.5	4	12	112	0.00	29.852 
19:00	31.6	26.6	31.6	78	25.5	5	14	112	0.00	29.849 
19:05	31.6	26.6	31.6	78	25.5	5	17	112	0.00	29.849 
19:10	31.6	27.6	31.6	78	25.5	4	13	112	0.00	29.849 
19:15	31.6	26.6	31.6	78	25.5	5	10	112	0.00	29.849 
19:20	31.6	26.6	31.6	78	25.5	5	14	112	0.00	29.849 
19:25	31.6	27.6	31.6	78	25.5	4	11	112	0.00	29.849 
19:30	31.6	26.6	31.6	79	25.8	5	14	112	0.00	29.846 
19:35	31.6	27.6	31.6	80	26.2	4	12	112	0.00	29.846 
19:40	31.5	26.5	31.5	81	26.4	5	14	112	0.00	29.846 
19:45	31.5	27.5	31.5	82	26.7	4	10	90	0.00	29.842 
19:50	31.5	31.5	31.5	82	26.7	3	10	112	0.00	29.842 
19:55	31.3	31.3	31.3	82	26.5	3	10	90	0.00	29.842 
20:00	31.5	26.5	31.5	81	26.4	5	13	90	0.00	29.839 
20:05	31.5	27.5	31.5	81	26.4	4	11	112	0.00	29.839 
20:10	31.5	31.5	31.5	80	26.1	3	12	112	0.00	29.839 
20:15	31.6	27.6	31.6	80	26.2	4	12	112	0.00	29.839 
20:20	31.6	27.6	31.6	79	25.8	4	15	112	0.00	29.839 
20:25	31.6	27.6	31.6	79	25.8	4	14	112	0.00	29.839 
20:30	31.6	31.6	31.6	79	25.8	3	11	112	0.00	29.835 
20:35	31.8	27.8	31.8	79	26.0	4	14	112	0.00	29.835 
20:40	31.8	26.8	31.8	79	26.0	5	13	112	0.00	29.835 
20:45	31.8	27.8	31.8	79	26.0	4	12	112	0.00	29.836 
20:50	31.8	26.8	31.8	78	25.7	5	15	90	0.00	29.836 
20:55	31.9	28.0	31.9	78	25.8	4	11	90	0.00	29.836 
21:00	31.9	31.9	31.9	79	26.1	3	11	90	0.00	29.834 
21:05	31.8	27.8	31.8	78	25.7	4	13	112	0.00	29.834 
21:10	31.8	27.8	31.8	79	26.0	4	10	112	0.00	29.834 
21:15	31.8	31.8	31.8	79	26.0	3	9	90	0.00	29.827 
21:20	31.8	31.8	31.8	79	26.0	3	6	90	0.00	29.827 
21:25	31.8	27.8	31.8	79	26.0	4	12	90	0.00	29.827 
21:30	31.9	27.0	31.9	79	26.1	5	11	112	0.00	29.823 
21:35	31.9	27.0	31.9	79	26.1	5	11	112	0.00	29.823 
21:40	31.9	31.9	31.9	79	26.1	3	10	112	0.00	29.823 
21:45	31.9	28.0	31.9	79	26.1	4	10	112	0.00	29.823 
21:50	31.9	28.0	31.9	79	26.1	4	9	112	0.00	29.823 
21:55	32.1	32.1	32.1	79	26.3	2	8	112	0.00	29.823 
22:00	32.1	32.1	32.1	79	26.3	2	9	22	0.00	29.821 
22:05	32.1	32.1	32.1	79	26.3	3	9	112	0.00	29.821 
22:10	32.1	28.2	32.1	80	26.6	4	11	112	0.00	29.821 
22:15	32.1	32.1	32.1	81	26.9	3	10	112	0.00	29.816 
22:20	32.1	28.2	32.1	81	26.9	4	10	90	0.00	29.816 
22:25	32.1	28.2	32.1	82	27.2	4	11	90	0.00	29.816 
22:30	32.1	28.2	32.1	82	27.2	4	10	90	0.00	29.807 
22:35	31.9	27.0	31.9	82	27.0	5	12	90	0.00	29.807 
22:40	31.9	28.0	31.9	83	27.3	4	11	112	0.00	29.807 
22:45	31.9	31.9	31.9	83	27.3	3	10	112	0.00	29.799 
22:50	31.9	27.0	31.9	83	27.3	5	11	112	0.00	29.799 
22:55	31.9	31.9	31.9	84	27.6	3	7	90	0.00	29.799 
23:00	31.9	28.0	31.9	84	27.6	4	10	90	0.00	29.792 
23:05	31.9	28.0	31.9	83	27.3	4	12	112	0.00	29.792 
23:10	31.9	31.9	31.9	84	27.6	3	11	112	0.00	29.792 
23:15	31.9	28.0	31.9	83	27.3	4	12	90	0.00	29.789 
23:20	32.1	32.1	32.1	84	27.8	2	7	112	0.00	29.789 
23:25	32.1	32.1	32.1	84	27.8	3	10	112	0.00	29.789 
23:30	32.1	27.2	32.1	83	27.5	5	15	112	0.00	29.787 
23:35	32.2	28.3	32.2	82	27.3	4	11	112	0.00	29.787 
23:40	32.4	28.5	32.4	81	27.2	4	13	112	0.00	29.787 
23:45	32.4	32.4	32.4	81	27.2	2	8	90	0.00	29.784 
23:50	32.4	32.4	32.4	81	27.2	3	7	112	0.00	29.784 
23:55	32.5	28.7	32.5	81	27.3	4	10	90	0.00	29.784 

CoCoRaHS
IN-AL-39
A2 Web Hosting
Creative Commons License
GoDaddy
search engine by freefind advanced

loaded 2018-11-19 10:19:53 • last modified 2010-11-18 10:43:29
Privacy PolicyDisclaimer
• wx.awcolley.com is powered by PmWiki v.2002016 •
• all content (unless otherwise noted) © 2018 A W Colley